createdAt,value
2018-07-07T00:00:12.374Z,1017.47
2018-07-07T00:01:12.378Z,1017.52
2018-07-07T00:02:12.377Z,1017.51
2018-07-07T00:03:12.371Z,1017.51
2018-07-07T00:04:12.371Z,1017.56
2018-07-07T00:05:12.379Z,1017.54
2018-07-07T00:06:12.373Z,1017.58
2018-07-07T00:07:12.373Z,1017.55
2018-07-07T00:08:12.373Z,1017.58
2018-07-07T00:09:12.365Z,1017.54
2018-07-07T00:10:12.366Z,1017.57
2018-07-07T00:11:12.365Z,1017.58
2018-07-07T00:12:12.362Z,1017.55
2018-07-07T00:13:12.370Z,1017.61
2018-07-07T00:14:12.366Z,1017.53
2018-07-07T00:15:12.365Z,1017.57
2018-07-07T00:16:12.362Z,1017.50
2018-07-07T00:17:12.357Z,1017.60
2018-07-07T00:18:12.356Z,1017.58
2018-07-07T00:19:12.360Z,1017.55
2018-07-07T00:20:12.358Z,1017.56
2018-07-07T00:21:12.354Z,1017.59
2018-07-07T00:22:12.352Z,1017.59
2018-07-07T00:23:12.350Z,1017.63
2018-07-07T00:24:12.349Z,1017.60
2018-07-07T00:25:12.353Z,1017.61
2018-07-07T00:26:12.353Z,1017.56
2018-07-07T00:27:12.359Z,1017.63
2018-07-07T00:28:12.350Z,1017.63
2018-07-07T00:29:12.343Z,1017.57
2018-07-07T00:30:12.342Z,1017.60
2018-07-07T00:31:12.344Z,1017.57
2018-07-07T00:32:12.339Z,1017.65
2018-07-07T00:33:12.344Z,1017.54
2018-07-07T00:34:12.341Z,1017.57
2018-07-07T00:35:12.340Z,1017.62
2018-07-07T00:36:12.335Z,1017.55
2018-07-07T00:37:12.338Z,1017.60
2018-07-07T00:38:12.337Z,1017.57
2018-07-07T00:39:12.340Z,1017.61
2018-07-07T00:40:12.336Z,1017.60
2018-07-07T00:41:12.329Z,1017.60
2018-07-07T00:42:12.329Z,1017.58
2018-07-07T00:43:12.328Z,1017.60
2018-07-07T00:44:12.325Z,1017.64
2018-07-07T00:45:12.331Z,1017.59
2018-07-07T00:46:12.330Z,1017.61
2018-07-07T00:47:12.328Z,1017.58
2018-07-07T00:48:12.324Z,1017.60
2018-07-07T00:49:12.319Z,1017.62
2018-07-07T00:50:12.322Z,1017.59
2018-07-07T00:51:12.321Z,1017.59
2018-07-07T00:52:12.319Z,1017.62
2018-07-07T00:53:12.315Z,1017.59
2018-07-07T00:54:12.317Z,1017.60
2018-07-07T00:55:12.312Z,1017.58
2018-07-07T00:56:12.311Z,1017.57
2018-07-07T00:57:12.314Z,1017.60
2018-07-07T00:58:12.313Z,1017.61
2018-07-07T00:59:12.313Z,1017.58
2018-07-07T01:00:12.310Z,1017.62
2018-07-07T01:01:12.305Z,1017.65
2018-07-07T01:02:12.303Z,1017.61
2018-07-07T01:03:12.301Z,1017.60
2018-07-07T01:04:12.300Z,1017.65
2018-07-07T01:05:12.302Z,1017.66
2018-07-07T01:06:12.302Z,1017.63
2018-07-07T01:07:12.295Z,1017.68
2018-07-07T01:08:12.294Z,1017.64
2018-07-07T01:09:12.298Z,1017.64
2018-07-07T01:10:12.297Z,1017.69
2018-07-07T01:11:12.296Z,1017.70
2018-07-07T01:12:12.293Z,1017.71
2018-07-07T01:13:12.286Z,1017.71
2018-07-07T01:14:12.289Z,1017.74
2018-07-07T01:15:12.285Z,1017.70
2018-07-07T01:16:12.282Z,1017.73
2018-07-07T01:17:12.286Z,1017.75
2018-07-07T01:18:12.284Z,1017.70
2018-07-07T01:19:12.289Z,1017.73
2018-07-07T01:20:12.279Z,1017.73
2018-07-07T01:21:12.275Z,1017.73
2018-07-07T01:22:12.273Z,1017.75
2018-07-07T01:23:12.277Z,1017.70
2018-07-07T01:24:12.275Z,1017.69
2018-07-07T01:25:12.270Z,1017.69
2018-07-07T01:26:12.267Z,1017.78
2018-07-07T01:27:12.267Z,1017.72
2018-07-07T01:28:12.263Z,1017.75
2018-07-07T01:29:12.267Z,1017.76
2018-07-07T01:30:12.269Z,1017.68
2018-07-07T01:31:12.265Z,1017.64
2018-07-07T01:32:12.264Z,1017.69
2018-07-07T01:33:12.256Z,1017.68
2018-07-07T01:34:12.255Z,1017.69
2018-07-07T01:35:12.253Z,1017.66
2018-07-07T01:36:12.253Z,1017.68
2018-07-07T01:37:12.256Z,1017.72
2018-07-07T01:38:12.261Z,1017.70
2018-07-07T01:39:12.247Z,1017.70
2018-07-07T01:40:12.245Z,1017.69
2018-07-07T01:41:12.248Z,1017.70
2018-07-07T01:42:12.248Z,1017.68
2018-07-07T01:43:12.245Z,1017.67
2018-07-07T01:44:12.243Z,1017.67
2018-07-07T01:45:12.238Z,1017.69
2018-07-07T01:46:12.235Z,1017.64
2018-07-07T01:47:12.234Z,1017.62
2018-07-07T01:48:12.231Z,1017.63
2018-07-07T01:49:12.235Z,1017.65
2018-07-07T01:50:12.233Z,1017.62
2018-07-07T01:51:12.232Z,1017.64
2018-07-07T01:52:12.231Z,1017.65
2018-07-07T01:53:12.223Z,1017.62
2018-07-07T01:54:12.223Z,1017.62
2018-07-07T01:55:12.225Z,1017.67
2018-07-07T01:56:12.223Z,1017.66
2018-07-07T01:57:12.217Z,1017.69
2018-07-07T01:58:12.215Z,1017.69
2018-07-07T01:59:12.214Z,1017.72
2018-07-07T02:00:12.213Z,1017.66
2018-07-07T02:01:12.216Z,1017.66
2018-07-07T02:02:12.213Z,1017.62
2018-07-07T02:03:12.217Z,1017.62
2018-07-07T02:04:12.209Z,1017.62
2018-07-07T02:05:12.204Z,1017.58
2018-07-07T02:06:12.203Z,1017.56
2018-07-07T02:07:12.202Z,1017.60
2018-07-07T02:08:12.201Z,1017.58
2018-07-07T02:09:12.203Z,1017.57
2018-07-07T02:10:12.203Z,1017.62
2018-07-07T02:11:12.197Z,1017.59
2018-07-07T02:12:12.195Z,1017.60
2018-07-07T02:13:12.198Z,1017.61
2018-07-07T02:14:12.198Z,1017.59
2018-07-07T02:15:12.199Z,1017.60
2018-07-07T02:16:12.193Z,1017.56
2018-07-07T02:17:12.186Z,1017.57
2018-07-07T02:18:12.186Z,1017.58
2018-07-07T02:19:12.185Z,1017.59
2018-07-07T02:20:12.182Z,1017.59
2018-07-07T02:21:12.186Z,1017.57
2018-07-07T02:22:12.184Z,1017.64
2018-07-07T02:23:12.183Z,1017.63
2018-07-07T02:24:12.181Z,1017.62
2018-07-07T02:25:12.176Z,1017.65
2018-07-07T02:26:12.177Z,1017.63
2018-07-07T02:27:12.179Z,1017.66
2018-07-07T02:28:12.179Z,1017.65
2018-07-07T02:29:12.171Z,1017.62
2018-07-07T02:30:12.169Z,1017.63
2018-07-07T02:31:12.167Z,1017.63
2018-07-07T02:32:12.167Z,1017.64
2018-07-07T02:33:12.169Z,1017.69
2018-07-07T02:34:12.169Z,1017.67
2018-07-07T02:35:12.167Z,1017.64
2018-07-07T02:36:12.165Z,1017.65
2018-07-07T02:37:12.159Z,1017.66
2018-07-07T02:38:12.158Z,1017.63
2018-07-07T02:39:12.156Z,1017.65
2018-07-07T02:40:12.154Z,1017.65
2018-07-07T02:41:12.158Z,1017.67
2018-07-07T02:42:12.158Z,1017.67
2018-07-07T02:43:12.152Z,1017.62
2018-07-07T02:44:12.148Z,1017.64
2018-07-07T02:45:12.153Z,1017.61
2018-07-07T02:46:12.172Z,1017.62
2018-07-07T02:47:12.150Z,1017.57
2018-07-07T02:48:12.150Z,1017.57
2018-07-07T02:49:12.142Z,1017.62
2018-07-07T02:50:12.141Z,1017.59
2018-07-07T02:51:12.140Z,1017.58
2018-07-07T02:52:12.140Z,1017.60
2018-07-07T02:53:12.143Z,1017.58
2018-07-07T02:54:12.141Z,1017.61
2018-07-07T02:55:12.144Z,1017.59
2018-07-07T02:56:12.140Z,1017.61
2018-07-07T02:57:12.132Z,1017.56
2018-07-07T02:58:12.131Z,1017.61
2018-07-07T02:59:12.136Z,1017.60
2018-07-07T03:00:12.132Z,1017.61
2018-07-07T03:01:12.127Z,1017.65
2018-07-07T03:02:12.126Z,1017.62
2018-07-07T03:03:12.151Z,1017.64
2018-07-07T03:04:12.124Z,1017.62
2018-07-07T03:05:12.130Z,1017.62
2018-07-07T03:06:12.131Z,1017.65
2018-07-07T03:07:12.126Z,1017.64
2018-07-07T03:08:12.124Z,1017.67
2018-07-07T03:09:12.118Z,1017.63
2018-07-07T03:10:12.117Z,1017.63
2018-07-07T03:11:12.116Z,1017.61
2018-07-07T03:12:12.114Z,1017.62
2018-07-07T03:13:12.117Z,1017.62
2018-07-07T03:14:12.121Z,1017.65
2018-07-07T03:15:12.112Z,1017.63
2018-07-07T03:16:12.109Z,1017.63
2018-07-07T03:17:12.112Z,1017.63
2018-07-07T03:18:12.111Z,1017.67
2018-07-07T03:19:12.112Z,1017.65
2018-07-07T03:20:12.109Z,1017.63
2018-07-07T03:21:12.104Z,1017.68
2018-07-07T03:22:12.103Z,1017.67
2018-07-07T03:23:12.102Z,1017.70
2018-07-07T03:24:12.099Z,1017.70
2018-07-07T03:25:12.104Z,1017.74
2018-07-07T03:26:12.105Z,1017.77
2018-07-07T03:27:12.101Z,1017.75
2018-07-07T03:28:12.100Z,1017.76
2018-07-07T03:29:12.095Z,1017.72
2018-07-07T03:30:12.095Z,1017.75
2018-07-07T03:31:12.097Z,1017.77
2018-07-07T03:32:12.095Z,1017.76
2018-07-07T03:33:12.089Z,1017.85
2018-07-07T03:34:12.089Z,1017.79
2018-07-07T03:35:12.092Z,1017.84
2018-07-07T03:36:12.090Z,1017.82
2018-07-07T03:37:12.089Z,1017.82
2018-07-07T03:38:12.090Z,1017.87
2018-07-07T03:39:12.088Z,1017.87
2018-07-07T03:40:12.086Z,1017.86
2018-07-07T03:41:12.081Z,1017.87
2018-07-07T03:42:12.103Z,1017.85
2018-07-07T03:43:12.078Z,1017.88
2018-07-07T03:44:12.077Z,1017.87
2018-07-07T03:45:12.081Z,1017.90
2018-07-07T03:46:12.087Z,1017.90
2018-07-07T03:47:12.075Z,1017.91
2018-07-07T03:48:12.072Z,1017.90
2018-07-07T03:49:12.124Z,1017.88
2018-07-07T03:50:12.076Z,1017.93
2018-07-07T03:51:12.073Z,1017.92
2018-07-07T03:52:12.073Z,1017.95
2018-07-07T03:53:12.067Z,1017.89
2018-07-07T03:54:12.066Z,1017.93
2018-07-07T03:55:12.065Z,1017.91
2018-07-07T03:56:12.064Z,1017.91
2018-07-07T03:57:12.066Z,1017.89
2018-07-07T03:58:12.065Z,1017.89
2018-07-07T03:59:12.066Z,1017.93
2018-07-07T04:00:12.063Z,1017.92
2018-07-07T04:01:12.057Z,1017.92
2018-07-07T04:02:12.056Z,1017.91
2018-07-07T04:03:12.062Z,1017.93
2018-07-07T04:04:12.058Z,1017.92
2018-07-07T04:05:12.053Z,1017.97
2018-07-07T04:06:12.052Z,1017.94
2018-07-07T04:07:12.059Z,1017.95
2018-07-07T04:08:12.051Z,1017.97
2018-07-07T04:09:12.052Z,1017.94
2018-07-07T04:10:12.052Z,1018.01
2018-07-07T04:11:12.051Z,1018.01
2018-07-07T04:12:12.050Z,1017.98
2018-07-07T04:13:12.042Z,1018.04
2018-07-07T04:14:12.041Z,1018.06
2018-07-07T04:15:12.040Z,1018.04
2018-07-07T04:16:12.039Z,1018.07
2018-07-07T04:17:12.043Z,1018.07
2018-07-07T04:18:12.042Z,1018.07
2018-07-07T04:19:12.036Z,1018.15
2018-07-07T04:20:12.107Z,1018.19
2018-07-07T04:21:12.038Z,1018.18
2018-07-07T04:22:12.036Z,1018.14
2018-07-07T04:23:12.034Z,1018.16
2018-07-07T04:24:12.031Z,1018.19
2018-07-07T04:25:12.026Z,1018.15
2018-07-07T04:26:12.025Z,1018.19
2018-07-07T04:27:12.023Z,1018.21
2018-07-07T04:28:12.021Z,1018.23
2018-07-07T04:29:12.024Z,1018.23
2018-07-07T04:30:12.023Z,1018.26
2018-07-07T04:31:12.026Z,1018.24
2018-07-07T04:32:12.021Z,1018.29
2018-07-07T04:33:12.016Z,1018.25
2018-07-07T04:34:12.014Z,1018.31
2018-07-07T04:39:12.045Z,1018.35
2018-07-07T04:40:12.004Z,1018.37
2018-07-07T04:41:12.008Z,1018.37
2018-07-07T04:42:12.006Z,1018.35
2018-07-07T04:43:12.001Z,1018.36
2018-07-07T04:44:11.999Z,1018.34
2018-07-07T04:45:12.003Z,1018.32
2018-07-07T04:46:12.003Z,1018.31
2018-07-07T04:47:11.999Z,1018.32
2018-07-07T04:48:12.000Z,1018.31
2018-07-07T04:49:11.992Z,1018.30
2018-07-07T04:50:11.991Z,1018.36
2018-07-07T04:51:11.995Z,1018.36
2018-07-07T04:52:11.994Z,1018.40
2018-07-07T04:53:11.987Z,1018.36
2018-07-07T04:54:11.986Z,1018.43
2018-07-07T04:55:11.985Z,1018.42
2018-07-07T04:56:11.983Z,1018.49
2018-07-07T04:57:11.988Z,1018.47
2018-07-07T04:58:11.987Z,1018.46
2018-07-07T04:59:11.988Z,1018.49
2018-07-07T05:00:11.983Z,1018.50
2018-07-07T05:01:11.977Z,1018.55
2018-07-07T05:02:11.977Z,1018.49
2018-07-07T05:03:11.975Z,1018.48
2018-07-07T05:04:11.974Z,1018.53
2018-07-07T05:05:11.977Z,1018.54
2018-07-07T05:06:11.977Z,1018.54
2018-07-07T05:07:11.972Z,1018.57
2018-07-07T05:08:11.968Z,1018.61
2018-07-07T05:09:11.974Z,1018.64
2018-07-07T05:10:11.972Z,1018.64
2018-07-07T05:11:11.973Z,1018.62
2018-07-07T05:12:11.972Z,1018.66
2018-07-07T05:13:11.965Z,1018.80
2018-07-07T05:14:11.966Z,1018.69
2018-07-07T05:15:11.963Z,1018.67
2018-07-07T05:16:11.963Z,1018.68
2018-07-07T05:17:12.025Z,1018.76
2018-07-07T05:18:11.968Z,1018.89
2018-07-07T05:19:11.970Z,1018.99
2018-07-07T05:20:11.966Z,1018.80
2018-07-07T05:21:11.961Z,1018.82
2018-07-07T05:22:11.962Z,1018.87
2018-07-07T05:23:11.965Z,1019.26
2018-07-07T05:24:11.966Z,1019.42
2018-07-07T05:25:11.962Z,1019.27
2018-07-07T05:26:11.964Z,1019.21
2018-07-07T05:27:11.964Z,1019.47
2018-07-07T05:28:11.963Z,1019.42
2018-07-07T05:29:11.968Z,1019.51
2018-07-07T05:30:11.972Z,1019.50
2018-07-07T05:31:11.972Z,1019.60
2018-07-07T05:32:12.034Z,1019.63
2018-07-07T05:33:11.970Z,1019.43
2018-07-07T05:34:11.972Z,1019.59
2018-07-07T05:35:11.974Z,1019.33
2018-07-07T05:36:11.976Z,1019.61
2018-07-07T05:37:11.989Z,1019.60
2018-07-07T05:38:11.987Z,1019.70
2018-07-07T05:39:11.986Z,1019.81
2018-07-07T05:40:11.993Z,1019.73
2018-07-07T05:41:11.998Z,1019.26
2018-07-07T05:42:12.002Z,1019.29
2018-07-07T05:43:12.006Z,1019.79
2018-07-07T05:44:12.009Z,1019.80
2018-07-07T05:45:12.009Z,1019.71
2018-07-07T05:46:12.012Z,1019.49
2018-07-07T05:47:12.018Z,1019.91
2018-07-07T05:48:12.021Z,1019.94
2018-07-07T05:49:12.029Z,1019.99
2018-07-07T05:50:12.036Z,1019.94
2018-07-07T05:51:12.041Z,1020.06
2018-07-07T05:52:12.045Z,1019.97
2018-07-07T05:53:12.044Z,1020.09
2018-07-07T05:54:12.051Z,1020.26
2018-07-07T05:55:12.061Z,1019.94
2018-07-07T05:56:12.065Z,1019.89
2018-07-07T05:57:12.066Z,1019.49
2018-07-07T05:58:12.072Z,1019.42
2018-07-07T05:59:12.077Z,1019.45
2018-07-07T06:00:12.082Z,1019.39
2018-07-07T06:01:12.093Z,1019.39
2018-07-07T06:02:12.099Z,1019.40
2018-07-07T06:03:12.106Z,1019.74
2018-07-07T06:04:12.109Z,1019.75
2018-07-07T06:05:12.111Z,1019.48
2018-07-07T06:06:12.117Z,1019.55
2018-07-07T06:07:12.123Z,1020.06
2018-07-07T06:08:12.128Z,1019.72
2018-07-07T06:09:12.139Z,1020.17
2018-07-07T06:10:12.145Z,1020.04
2018-07-07T06:11:12.147Z,1020.12
2018-07-07T06:12:12.150Z,1020.37
2018-07-07T06:13:12.162Z,1020.38
2018-07-07T06:14:12.167Z,1020.34
2018-07-07T06:15:12.173Z,1020.41
2018-07-07T06:16:12.177Z,1020.44
2018-07-07T06:17:12.179Z,1020.53
2018-07-07T06:18:12.197Z,1020.56
2018-07-07T06:19:12.193Z,1020.61
2018-07-07T06:20:12.199Z,1020.62
2018-07-07T06:21:12.208Z,1020.68
2018-07-07T06:22:12.215Z,1020.66
2018-07-07T06:23:12.223Z,1020.68
2018-07-07T06:24:12.232Z,1020.75
2018-07-07T06:25:12.233Z,1020.74
2018-07-07T06:26:12.240Z,1020.79
2018-07-07T06:27:12.253Z,1020.79
2018-07-07T06:28:12.260Z,1020.77
2018-07-07T06:29:12.263Z,1020.82
2018-07-07T06:30:12.272Z,1020.86
2018-07-07T06:31:12.285Z,1020.88
2018-07-07T06:32:12.287Z,1020.89
2018-07-07T06:33:12.301Z,1020.88
2018-07-07T06:34:12.310Z,1020.92
2018-07-07T06:35:12.370Z,1020.92
2018-07-07T06:36:12.326Z,1020.91
2018-07-07T06:37:12.346Z,1020.88
2018-07-07T06:38:12.342Z,1020.90
2018-07-07T06:39:12.352Z,1020.96
2018-07-07T06:40:12.361Z,1020.94
2018-07-07T06:41:12.375Z,1021.01
2018-07-07T06:42:12.386Z,1020.97
2018-07-07T06:43:12.391Z,1021.02
2018-07-07T06:44:12.400Z,1021.02
2018-07-07T06:45:12.416Z,1021.02
2018-07-07T06:46:12.427Z,1021.07
2018-07-07T06:47:12.437Z,1021.04
2018-07-07T06:48:12.451Z,1020.99
2018-07-07T06:49:12.453Z,1021.00
2018-07-07T06:50:12.463Z,1021.08
2018-07-07T06:51:12.474Z,1021.04
2018-07-07T06:52:12.485Z,1021.06
2018-07-07T06:53:12.501Z,1021.07
2018-07-07T06:54:12.511Z,1021.15
2018-07-07T06:55:12.523Z,1021.12
2018-07-07T06:56:12.532Z,1021.13
2018-07-07T06:57:12.541Z,1021.16
2018-07-07T06:58:12.551Z,1021.17
2018-07-07T06:59:12.568Z,1021.16
2018-07-07T07:00:12.579Z,1021.11
2018-07-07T07:01:12.587Z,1021.16
2018-07-07T07:02:12.602Z,1021.16
2018-07-07T07:03:12.611Z,1021.15
2018-07-07T07:04:12.623Z,1021.16
2018-07-07T07:05:12.637Z,1021.22
2018-07-07T07:06:12.651Z,1021.22
2018-07-07T07:07:12.663Z,1021.20
2018-07-07T07:08:12.676Z,1021.14
2018-07-07T07:09:12.691Z,1021.16
2018-07-07T07:10:12.694Z,1021.17
2018-07-07T07:11:12.708Z,1021.18
2018-07-07T07:12:12.720Z,1021.19
2018-07-07T07:13:12.736Z,1021.16
2018-07-07T07:14:12.748Z,1021.17
2018-07-07T07:15:12.756Z,1021.16
2018-07-07T07:16:12.768Z,1021.16
2018-07-07T07:17:12.785Z,1021.21
2018-07-07T07:18:12.798Z,1021.20
2018-07-07T07:19:12.813Z,1021.24
2018-07-07T07:20:12.825Z,1021.23
2018-07-07T07:21:12.834Z,1021.23
2018-07-07T07:22:12.846Z,1021.21
2018-07-07T07:23:12.860Z,1021.26
2018-07-07T07:24:12.872Z,1021.30
2018-07-07T07:25:12.891Z,1021.33
2018-07-07T07:26:13.054Z,1021.33
2018-07-07T07:27:12.918Z,1021.31
2018-07-07T07:28:12.932Z,1021.35
2018-07-07T07:29:12.940Z,1021.37
2018-07-07T07:30:12.957Z,1021.38
2018-07-07T07:31:12.972Z,1021.34
2018-07-07T07:32:12.984Z,1021.35
2018-07-07T07:33:12.994Z,1021.41
2018-07-07T07:34:13.009Z,1021.41
2018-07-07T07:35:13.027Z,1021.40
2018-07-07T07:36:13.036Z,1021.37
2018-07-07T07:37:13.058Z,1021.40
2018-07-07T07:38:13.069Z,1021.43
2018-07-07T07:39:13.083Z,1021.40
2018-07-07T07:40:13.097Z,1021.38
2018-07-07T07:41:13.107Z,1021.35
2018-07-07T07:42:13.121Z,1021.36
2018-07-07T07:43:13.158Z,1021.32
2018-07-07T07:44:13.150Z,1021.31
2018-07-07T07:45:13.169Z,1021.33
2018-07-07T07:46:13.184Z,1021.35
2018-07-07T07:47:13.194Z,1021.31
2018-07-07T07:48:13.207Z,1021.39
2018-07-07T07:49:13.227Z,1021.38
2018-07-07T07:50:13.242Z,1021.37
2018-07-07T07:51:13.260Z,1021.38
2018-07-07T07:52:13.271Z,1021.36
2018-07-07T07:53:13.282Z,1021.37
2018-07-07T07:54:13.298Z,1021.40
2018-07-07T07:55:13.312Z,1021.36
2018-07-07T07:56:13.328Z,1021.37
2018-07-07T07:57:13.350Z,1021.30
2018-07-07T07:58:13.363Z,1021.38
2018-07-07T07:59:13.379Z,1021.39
2018-07-07T08:00:13.394Z,1020.47
2018-07-07T08:01:13.404Z,1020.48
2018-07-07T08:02:13.422Z,1020.52
2018-07-07T08:03:13.442Z,1020.53
2018-07-07T08:04:13.456Z,1020.54
2018-07-07T08:05:13.466Z,1020.55
2018-07-07T08:06:13.483Z,1020.51
2018-07-07T08:07:13.498Z,1020.53
2018-07-07T08:08:13.514Z,1020.53
2018-07-07T08:09:13.535Z,1020.57
2018-07-07T08:10:13.550Z,1020.56
2018-07-07T08:11:13.566Z,1020.55
2018-07-07T08:12:13.580Z,1020.61
2018-07-07T08:13:13.597Z,1020.66
2018-07-07T08:14:13.681Z,1020.69
2018-07-07T08:15:13.627Z,1020.69
2018-07-07T08:16:13.643Z,1020.74
2018-07-07T08:17:13.663Z,1020.80
2018-07-07T08:18:13.682Z,1020.90
2018-07-07T08:19:13.695Z,1020.97
2018-07-07T08:20:13.709Z,1020.98
2018-07-07T08:21:13.733Z,1021.08
2018-07-07T08:22:13.746Z,1021.13
2018-07-07T08:23:13.769Z,1021.25
2018-07-07T08:24:13.782Z,1021.22
2018-07-07T08:25:13.793Z,1021.32
2018-07-07T08:26:13.810Z,1021.38
2018-07-07T08:27:13.826Z,1021.47
2018-07-07T08:28:13.842Z,1021.44
2018-07-07T08:29:13.864Z,1021.60
2018-07-07T08:30:13.880Z,1021.75
2018-07-07T08:31:13.900Z,1021.84
2018-07-07T08:32:13.915Z,1021.91
2018-07-07T08:33:13.928Z,1021.99
2018-07-07T08:34:13.946Z,1022.09
2018-07-07T08:35:13.967Z,1022.28
2018-07-07T08:36:13.984Z,1022.34
2018-07-07T08:37:13.996Z,1022.39
2018-07-07T08:38:14.013Z,1022.42
2018-07-07T08:39:14.031Z,1022.40
2018-07-07T08:40:14.048Z,1022.46
2018-07-07T08:41:14.070Z,1022.20
2018-07-07T08:42:14.138Z,1022.08
2018-07-07T08:43:14.106Z,1022.16
2018-07-07T08:44:14.126Z,1022.10
2018-07-07T08:45:14.139Z,1021.81
2018-07-07T08:46:14.161Z,1021.51
2018-07-07T08:47:14.177Z,1021.51
2018-07-07T08:48:14.194Z,1021.54
2018-07-07T08:49:14.228Z,1021.65
2018-07-07T08:50:14.238Z,1021.67
2018-07-07T08:51:14.254Z,1021.63
2018-07-07T08:52:14.274Z,1021.62
2018-07-07T08:53:14.298Z,1021.73
2018-07-07T08:54:14.317Z,1021.64
2018-07-07T08:55:14.338Z,1021.61
2018-07-07T08:56:14.358Z,1021.61
2018-07-07T08:57:14.372Z,1021.66
2018-07-07T08:58:14.391Z,1021.52
2018-07-07T08:59:14.411Z,1021.39
2018-07-07T09:00:14.430Z,1021.40
2018-07-07T09:01:14.456Z,1021.21
2018-07-07T09:02:14.515Z,1020.89
2018-07-07T09:03:14.496Z,1020.60
2018-07-07T09:04:14.514Z,1020.39
2018-07-07T09:05:14.531Z,1020.37
2018-07-07T09:06:14.551Z,1020.35
2018-07-07T09:07:14.576Z,1020.35
2018-07-07T09:08:14.598Z,1020.38
2018-07-07T09:09:14.611Z,1020.38
2018-07-07T09:10:14.632Z,1020.41
2018-07-07T09:11:14.653Z,1020.37
2018-07-07T09:12:14.672Z,1020.41
2018-07-07T09:13:14.699Z,1020.39
2018-07-07T09:14:14.735Z,1020.36
2018-07-07T09:15:14.741Z,1020.35
2018-07-07T09:16:14.761Z,1020.35
2018-07-07T09:17:14.778Z,1020.29
2018-07-07T09:18:14.799Z,1020.34
2018-07-07T09:19:14.824Z,1020.31
2018-07-07T09:20:14.843Z,1020.34
2018-07-07T09:21:14.899Z,1020.31
2018-07-07T09:22:14.893Z,1020.24
2018-07-07T09:23:14.908Z,1020.24
2018-07-07T09:24:14.928Z,1020.22
2018-07-07T09:25:14.955Z,1020.22
2018-07-07T09:26:14.977Z,1020.27
2018-07-07T09:27:14.997Z,1020.24
2018-07-07T09:28:15.017Z,1020.22
2018-07-07T09:29:15.033Z,1020.20
2018-07-07T09:30:15.055Z,1020.19
2018-07-07T09:31:15.074Z,1020.20
2018-07-07T09:32:15.094Z,1020.17
2018-07-07T09:33:15.118Z,1020.24
2018-07-07T09:34:15.138Z,1020.18
2018-07-07T09:35:15.157Z,1020.17
2018-07-07T09:36:15.177Z,1020.16
2018-07-07T09:37:15.191Z,1020.19
2018-07-07T09:38:15.211Z,1020.16
2018-07-07T09:39:15.235Z,1020.14
2018-07-07T09:40:15.252Z,1020.17
2018-07-07T09:41:15.269Z,1020.17
2018-07-07T09:42:15.285Z,1020.17
2018-07-07T09:43:15.305Z,1020.12
2018-07-07T09:44:15.323Z,1020.11
2018-07-07T09:45:15.347Z,1020.09
2018-07-07T09:46:15.366Z,1020.10
2018-07-07T09:47:15.386Z,1020.13
2018-07-07T09:48:15.407Z,1020.16
2018-07-07T09:49:15.420Z,1020.12
2018-07-07T09:50:15.439Z,1020.12
2018-07-07T09:51:15.460Z,1020.11
2018-07-07T09:52:15.480Z,1020.10
2018-07-07T09:53:15.503Z,1020.13
2018-07-07T09:54:15.525Z,1020.13
2018-07-07T09:55:15.540Z,1020.15
2018-07-07T09:56:15.642Z,1020.15
2018-07-07T09:57:15.631Z,1020.14
2018-07-07T09:58:15.606Z,1020.09
2018-07-07T09:59:15.626Z,1020.11
2018-07-07T10:00:15.645Z,1020.09
2018-07-07T10:01:15.662Z,1020.14
2018-07-07T10:02:15.683Z,1020.12
2018-07-07T10:03:15.706Z,1020.13
2018-07-07T10:04:15.723Z,1020.04
2018-07-07T10:05:15.747Z,1020.08
2018-07-07T10:06:15.768Z,1020.04
2018-07-07T10:07:15.788Z,1020.04
2018-07-07T10:08:15.805Z,1020.03
2018-07-07T10:09:15.820Z,1020.05
2018-07-07T10:10:15.841Z,1020.00
2018-07-07T10:11:15.864Z,1020.04
2018-07-07T10:12:15.884Z,1020.00
2018-07-07T10:13:15.899Z,1020.02
2018-07-07T10:14:15.918Z,1019.99
2018-07-07T10:15:15.938Z,1019.95
2018-07-07T10:16:15.956Z,1020.01
2018-07-07T10:17:15.980Z,1019.99
2018-07-07T10:18:16.000Z,1020.00
2018-07-07T10:19:16.020Z,1020.03
2018-07-07T10:20:16.039Z,1020.01
2018-07-07T10:21:16.053Z,1019.95
2018-07-07T10:22:16.072Z,1019.95
2018-07-07T10:23:16.091Z,1020.00
2018-07-07T10:24:16.109Z,1019.97
2018-07-07T10:25:16.133Z,1019.92
2018-07-07T10:26:16.183Z,1019.94
2018-07-07T10:27:16.168Z,1019.97
2018-07-07T10:28:16.187Z,1019.95
2018-07-07T10:29:16.211Z,1019.97
2018-07-07T10:30:16.233Z,1020.04
2018-07-07T10:31:16.250Z,1019.99
2018-07-07T10:32:16.269Z,1019.94
2018-07-07T10:33:16.285Z,1019.94
2018-07-07T10:34:16.304Z,1019.98
2018-07-07T10:35:16.325Z,1020.00
2018-07-07T10:36:16.344Z,1020.00
2018-07-07T10:37:16.371Z,1020.00
2018-07-07T10:38:16.410Z,1019.99
2018-07-07T10:39:16.411Z,1019.99
2018-07-07T10:40:16.430Z,1020.05
2018-07-07T10:41:16.448Z,1020.03
2018-07-07T10:42:16.469Z,1020.01
2018-07-07T10:43:16.494Z,1019.95
2018-07-07T10:44:16.514Z,1019.92
2018-07-07T10:45:16.530Z,1019.96
2018-07-07T10:46:16.557Z,1019.90
2018-07-07T10:47:16.583Z,1019.93
2018-07-07T10:48:16.592Z,1019.91
2018-07-07T10:49:16.617Z,1019.92
2018-07-07T10:50:16.637Z,1019.89
2018-07-07T10:51:16.658Z,1019.89
2018-07-07T10:52:16.676Z,1019.93
2018-07-07T10:53:16.694Z,1019.90
2018-07-07T10:54:16.712Z,1019.91
2018-07-07T10:55:16.731Z,1019.94
2018-07-07T10:56:16.750Z,1019.94
2018-07-07T10:57:16.775Z,1019.97
2018-07-07T10:58:16.796Z,1019.96
2018-07-07T10:59:16.811Z,1020.00
2018-07-07T11:00:16.832Z,1019.98
2018-07-07T11:01:16.856Z,1019.97
2018-07-07T11:02:16.877Z,1019.91
2018-07-07T11:03:16.899Z,1019.98
2018-07-07T11:04:17.014Z,1019.97
2018-07-07T11:05:16.932Z,1019.99
2018-07-07T11:06:16.953Z,1019.93
2018-07-07T11:07:16.973Z,1019.94
2018-07-07T11:08:16.996Z,1019.88
2018-07-07T11:09:17.016Z,1019.93
2018-07-07T11:10:17.036Z,1019.87
2018-07-07T11:11:17.056Z,1019.89
2018-07-07T11:12:17.077Z,1019.91
2018-07-07T11:13:17.091Z,1019.85
2018-07-07T11:14:17.112Z,1019.87
2018-07-07T11:15:17.138Z,1019.82
2018-07-07T11:16:17.155Z,1019.88
2018-07-07T11:17:17.170Z,1019.85
2018-07-07T11:18:17.191Z,1019.79
2018-07-07T11:19:17.209Z,1019.82
2018-07-07T11:20:17.227Z,1019.78
2018-07-07T11:21:17.250Z,1019.71
2018-07-07T11:22:17.271Z,1019.74
2018-07-07T11:23:17.289Z,1019.61
2018-07-07T11:24:17.307Z,1019.57
2018-07-07T11:25:17.322Z,1019.52
2018-07-07T11:26:17.340Z,1019.44
2018-07-07T11:27:17.359Z,1019.35
2018-07-07T11:28:17.374Z,1019.37
2018-07-07T11:29:17.396Z,1019.32
2018-07-07T11:30:17.414Z,1019.26
2018-07-07T11:31:17.424Z,1019.28
2018-07-07T11:32:17.439Z,1019.37
2018-07-07T11:33:17.459Z,1019.30
2018-07-07T11:34:17.475Z,1019.32
2018-07-07T11:35:17.490Z,1019.21
2018-07-07T11:36:17.564Z,1019.20
2018-07-07T11:37:17.512Z,1019.20
2018-07-07T11:38:17.526Z,1019.13
2018-07-07T11:39:17.540Z,1019.13
2018-07-07T11:40:17.552Z,1019.18
2018-07-07T11:41:17.570Z,1019.15
2018-07-07T11:42:17.621Z,1019.18
2018-07-07T11:43:17.597Z,1019.15
2018-07-07T11:44:17.650Z,1019.16
2018-07-07T11:45:17.613Z,1019.10
2018-07-07T11:46:17.626Z,1019.08
2018-07-07T11:47:17.644Z,1019.10
2018-07-07T11:48:17.652Z,1019.13
2018-07-07T11:49:17.658Z,1019.07
2018-07-07T11:50:17.698Z,1019.03
2018-07-07T11:51:17.679Z,1019.13
2018-07-07T11:52:17.688Z,1019.05
2018-07-07T11:53:17.702Z,1019.05
2018-07-07T11:54:17.711Z,1019.08
2018-07-07T11:55:17.721Z,1019.01
2018-07-07T11:56:17.729Z,1019.05
2018-07-07T11:57:17.757Z,1018.99
2018-07-07T11:58:17.744Z,1019.00
2018-07-07T11:59:17.752Z,1019.00
2018-07-07T12:00:17.760Z,1019.06
2018-07-07T12:01:17.773Z,1019.04
2018-07-07T12:02:17.783Z,1019.00
2018-07-07T12:03:17.786Z,1018.98
2018-07-07T12:04:17.795Z,1018.97
2018-07-07T12:05:17.807Z,1018.95
2018-07-07T12:06:17.814Z,1018.90
2018-07-07T12:07:17.821Z,1018.98
2018-07-07T12:08:17.849Z,1018.94
2018-07-07T12:09:17.832Z,1018.93